Aviation Digital Data Service (ADDS)

Output produced by TAFs form (0109 UTC 24 August 2017)
found at http://www.aviationweather.gov/adds/tafs/
 
METAR text: KBHM 240053Z 35006KT 10SM CLR 25/21 A2995 RMK AO2 SLP132 T02500206
Conditions at: KBHM (BIRMINGHAM , AL, US) observed 0053 UTC 24 August 2017
Temperature: 25.0°C (77°F)
Dewpoint: 20.6°C (69°F) [RH = 77%]
Pressure (altimeter): 29.95 inches Hg (1014.3 mb)
[Sea-level pressure: 1013.2 mb]
Winds: from the N (350 degrees) at 7 MPH (6 knots; 3.1 m/s)
Visibility: 10 or more miles (16+ km)
Ceiling: at least 12,000 feet AGL
Clouds: sky clear below 12,000 feet AGL
Weather: no significant weather observed at this time

Forecast for: KBHM (BIRMINGHAM , AL, US)
Text: KBHM 232324Z 2400/2424 02005KT P6SM SCT050 BKN250
Forecast period: 0000 to 1500 UTC 24 August 2017
Forecast type: FROM: standard forecast or significant change
Winds: from the NNE (20 degrees) at 6 MPH (5 knots; 2.6 m/s)
Visibility: 6 or more miles (10+ km)
Ceiling: 25000 feet AGL
Clouds: scattered clouds at 5000 feet AGL
broken clouds at 25000 feet AGL
Weather: no significant weather forecast for this period
Text: FM241500 02008KT P6SM SCT250
Forecast period: 1500 UTC 24 August 2017 to 0000 UTC 25 August 2017
Forecast type: FROM: standard forecast or significant change
Winds: from the NNE (20 degrees) at 9 MPH (8 knots; 4.2 m/s)
Visibility: 6 or more miles (10+ km)
Clouds: scattered clouds at 25000 feet AGL
Weather: no significant weather forecast for this period